sensor_id;sensor_type;location;lat;lon;timestamp;P1;durP1;ratioP1;P2;durP2;ratioP2
42598;SDS011;28225;42.714;23.860;2023-04-24T00:00:05;13.30;;;6.93;;
42598;SDS011;28225;42.714;23.860;2023-04-24T00:00:21;12.52;;;7.55;;
42598;SDS011;28225;42.714;23.860;2023-04-24T00:00:37;12.70;;;7.85;;
42598;SDS011;28225;42.714;23.860;2023-04-24T00:00:55;10.05;;;6.38;;
42598;SDS011;28225;42.714;23.860;2023-04-24T00:01:11;8.52;;;5.65;;
42598;SDS011;28225;42.714;23.860;2023-04-24T00:01:27;8.32;;;5.70;;
42598;SDS011;28225;42.714;23.860;2023-04-24T00:01:44;10.85;;;6.25;;
42598;SDS011;28225;42.714;23.860;2023-04-24T00:01:59;11.07;;;6.87;;
42598;SDS011;28225;42.714;23.860;2023-04-24T00:02:15;10.50;;;6.82;;
42598;SDS011;28225;42.714;23.860;2023-04-24T00:02:31;14.25;;;7.75;;
42598;SDS011;28225;42.714;23.860;2023-04-24T00:02:47;20.77;;;11.45;;
42598;SDS011;28225;42.714;23.860;2023-04-24T00:03:03;22.23;;;12.38;;
42598;SDS011;28225;42.714;23.860;2023-04-24T00:03:18;14.97;;;8.63;;
42598;SDS011;28225;42.714;23.860;2023-04-24T00:03:36;13.57;;;8.00;;
42598;SDS011;28225;42.714;23.860;2023-04-24T00:03:51;15.20;;;8.98;;
42598;SDS011;28225;42.714;23.860;2023-04-24T00:04:07;14.73;;;8.70;;
42598;SDS011;28225;42.714;23.860;2023-04-24T00:04:25;17.67;;;9.50;;
42598;SDS011;28225;42.714;23.860;2023-04-24T00:04:41;20.77;;;10.98;;
42598;SDS011;28225;42.714;23.860;2023-04-24T00:05:01;22.38;;;11.93;;
42598;SDS011;28225;42.714;23.860;2023-04-24T00:05:17;21.63;;;12.25;;
42598;SDS011;28225;42.714;23.860;2023-04-24T00:05:33;20.45;;;11.10;;
42598;SDS011;28225;42.714;23.860;2023-04-24T00:05:48;18.30;;;10.23;;
42598;SDS011;28225;42.714;23.860;2023-04-24T00:06:05;14.93;;;9.55;;
42598;SDS011;28225;42.714;23.860;2023-04-24T00:06:23;14.73;;;8.90;;
42598;SDS011;28225;42.714;23.860;2023-04-24T00:06:38;14.43;;;8.82;;
42598;SDS011;28225;42.714;23.860;2023-04-24T00:06:57;11.55;;;7.18;;
42598;SDS011;28225;42.714;23.860;2023-04-24T00:07:15;12.98;;;6.05;;
42598;SDS011;28225;42.714;23.860;2023-04-24T00:07:31;12.50;;;6.45;;
42598;SDS011;28225;42.714;23.860;2023-04-24T00:07:47;12.07;;;6.93;;
42598;SDS011;28225;42.714;23.860;2023-04-24T00:08:02;19.35;;;10.40;;
42598;SDS011;28225;42.714;23.860;2023-04-24T00:08:18;24.97;;;14.17;;
42598;SDS011;28225;42.714;23.860;2023-04-24T00:08:34;25.80;;;14.95;;
42598;SDS011;28225;42.714;23.860;2023-04-24T00:08:50;24.08;;;14.30;;
42598;SDS011;28225;42.714;23.860;2023-04-24T00:09:06;22.50;;;13.77;;
42598;SDS011;28225;42.714;23.860;2023-04-24T00:09:21;20.50;;;12.20;;
42598;SDS011;28225;42.714;23.860;2023-04-24T00:09:36;16.87;;;10.33;;
42598;SDS011;28225;42.714;23.860;2023-04-24T00:09:52;16.23;;;10.38;;
42598;SDS011;28225;42.714;23.860;2023-04-24T00:10:07;15.90;;;10.07;;
42598;SDS011;28225;42.714;23.860;2023-04-24T00:10:23;15.38;;;9.32;;
42598;SDS011;28225;42.714;23.860;2023-04-24T00:10:39;15.10;;;8.40;;
42598;SDS011;28225;42.714;23.860;2023-04-24T00:10:54;15.65;;;8.52;;
42598;SDS011;28225;42.714;23.860;2023-04-24T00:11:09;15.30;;;9.43;;
42598;SDS011;28225;42.714;23.860;2023-04-24T00:11:25;14.77;;;9.43;;
42598;SDS011;28225;42.714;23.860;2023-04-24T00:11:40;19.35;;;10.40;;
42598;SDS011;28225;42.714;23.860;2023-04-24T00:11:56;23.20;;;11.70;;
42598;SDS011;28225;42.714;23.860;2023-04-24T00:12:11;20.92;;;10.93;;
42598;SDS011;28225;42.714;23.860;2023-04-24T00:12:27;19.60;;;10.57;;
42598;SDS011;28225;42.714;23.860;2023-04-24T00:12:42;17.98;;;10.48;;
42598;SDS011;28225;42.714;23.860;2023-04-24T00:12:57;18.23;;;10.23;;
42598;SDS011;28225;42.714;23.860;2023-04-24T00:13:13;18.53;;;10.17;;
42598;SDS011;28225;42.714;23.860;2023-04-24T00:13:28;15.50;;;9.63;;
42598;SDS011;28225;42.714;23.860;2023-04-24T00:13:43;17.07;;;9.40;;
42598;SDS011;28225;42.714;23.860;2023-04-24T00:13:59;17.97;;;9.47;;
42598;SDS011;28225;42.714;23.860;2023-04-24T00:14:14;15.32;;;9.70;;
42598;SDS011;28225;42.714;23.860;2023-04-24T00:14:30;15.90;;;9.97;;
42598;SDS011;28225;42.714;23.860;2023-04-24T00:14:46;16.73;;;10.45;;
42598;SDS011;28225;42.714;23.860;2023-04-24T00:15:02;16.05;;;9.48;;
42598;SDS011;28225;42.714;23.860;2023-04-24T00:15:18;14.90;;;9.00;;
42598;SDS011;28225;42.714;23.860;2023-04-24T00:15:33;13.93;;;9.00;;
42598;SDS011;28225;42.714;23.860;2023-04-24T00:15:48;12.80;;;7.90;;
42598;SDS011;28225;42.714;23.860;2023-04-24T00:16:04;10.43;;;7.07;;
42598;SDS011;28225;42.714;23.860;2023-04-24T00:16:20;10.48;;;6.90;;
42598;SDS011;28225;42.714;23.860;2023-04-24T00:16:36;11.75;;;7.13;;
42598;SDS011;28225;42.714;23.860;2023-04-24T00:16:51;11.05;;;7.13;;
42598;SDS011;28225;42.714;23.860;2023-04-24T00:17:06;11.33;;;7.40;;
42598;SDS011;28225;42.714;23.860;2023-04-24T00:17:22;11.40;;;8.07;;
42598;SDS011;28225;42.714;23.860;2023-04-24T00:17:37;10.70;;;7.90;;
42598;SDS011;28225;42.714;23.860;2023-04-24T00:17:53;11.23;;;7.33;;
42598;SDS011;28225;42.714;23.860;2023-04-24T00:18:09;13.07;;;8.10;;
42598;SDS011;28225;42.714;23.860;2023-04-24T00:18:24;11.90;;;8.43;;
42598;SDS011;28225;42.714;23.860;2023-04-24T00:18:39;10.43;;;8.13;;
42598;SDS011;28225;42.714;23.860;2023-04-24T00:18:56;12.38;;;7.85;;
42598;SDS011;28225;42.714;23.860;2023-04-24T00:19:11;12.00;;;7.72;;
42598;SDS011;28225;42.714;23.860;2023-04-24T00:19:27;10.00;;;7.80;;
42598;SDS011;28225;42.714;23.860;2023-04-24T00:19:43;9.65;;;7.18;;
42598;SDS011;28225;42.714;23.860;2023-04-24T00:19:59;11.40;;;6.90;;
42598;SDS011;28225;42.714;23.860;2023-04-24T00:20:14;11.32;;;7.20;;
42598;SDS011;28225;42.714;23.860;2023-04-24T00:20:30;10.25;;;7.15;;
42598;SDS011;28225;42.714;23.860;2023-04-24T00:20:47;11.75;;;7.72;;
42598;SDS011;28225;42.714;23.860;2023-04-24T00:21:02;12.00;;;7.60;;
42598;SDS011;28225;42.714;23.860;2023-04-24T00:21:18;11.47;;;7.27;;
42598;SDS011;28225;42.714;23.860;2023-04-24T00:21:34;10.55;;;7.35;;
42598;SDS011;28225;42.714;23.860;2023-04-24T00:21:50;9.75;;;7.15;;
42598;SDS011;28225;42.714;23.860;2023-04-24T00:22:05;9.40;;;6.93;;
42598;SDS011;28225;42.714;23.860;2023-04-24T00:22:21;10.00;;;7.03;;
42598;SDS011;28225;42.714;23.860;2023-04-24T00:22:37;10.05;;;6.97;;
42598;SDS011;28225;42.714;23.860;2023-04-24T00:22:52;9.43;;;6.40;;
42598;SDS011;28225;42.714;23.860;2023-04-24T00:23:07;8.95;;;6.15;;
42598;SDS011;28225;42.714;23.860;2023-04-24T00:23:23;9.60;;;6.57;;
42598;SDS011;28225;42.714;23.860;2023-04-24T00:23:38;10.97;;;6.60;;
42598;SDS011;28225;42.714;23.860;2023-04-24T00:23:53;10.00;;;6.47;;
42598;SDS011;28225;42.714;23.860;2023-04-24T00:24:09;8.80;;;6.60;;
42598;SDS011;28225;42.714;23.860;2023-04-24T00:24:24;12.33;;;6.60;;
42598;SDS011;28225;42.714;23.860;2023-04-24T00:24:40;27.80;;;7.97;;
42598;SDS011;28225;42.714;23.860;2023-04-24T00:24:56;29.05;;;8.23;;
42598;SDS011;28225;42.714;23.860;2023-04-24T00:25:11;16.73;;;6.40;;
42598;SDS011;28225;42.714;23.860;2023-04-24T00:25:27;16.83;;;6.40;;
42598;SDS011;28225;42.714;23.860;2023-04-24T00:25:42;13.70;;;6.20;;
42598;SDS011;28225;42.714;23.860;2023-04-24T00:25:57;7.82;;;5.25;;
42598;SDS011;28225;42.714;23.860;2023-04-24T00:26:13;9.87;;;5.87;;
42598;SDS011;28225;42.714;23.860;2023-04-24T00:26:28;11.57;;;6.32;;
42598;SDS011;28225;42.714;23.860;2023-04-24T00:26:44;9.70;;;6.00;;
42598;SDS011;28225;42.714;23.860;2023-04-24T00:26:59;11.40;;;6.13;;
42598;SDS011;28225;42.714;23.860;2023-04-24T00:27:15;10.23;;;5.90;;
42598;SDS011;28225;42.714;23.860;2023-04-24T00:27:31;15.83;;;6.57;;
42598;SDS011;28225;42.714;23.860;2023-04-24T00:27:46;21.60;;;7.73;;
42598;SDS011;28225;42.714;23.860;2023-04-24T00:28:02;17.55;;;8.10;;
42598;SDS011;28225;42.714;23.860;2023-04-24T00:28:17;12.87;;;8.20;;
42598;SDS011;28225;42.714;23.860;2023-04-24T00:28:32;9.97;;;7.40;;
42598;SDS011;28225;42.714;23.860;2023-04-24T00:28:48;12.73;;;6.68;;
42598;SDS011;28225;42.714;23.860;2023-04-24T00:29:03;13.60;;;6.93;;
42598;SDS011;28225;42.714;23.860;2023-04-24T00:29:18;11.88;;;7.70;;
42598;SDS011;28225;42.714;23.860;2023-04-24T00:29:34;14.87;;;8.67;;
42598;SDS011;28225;42.714;23.860;2023-04-24T00:29:49;16.47;;;8.83;;
42598;SDS011;28225;42.714;23.860;2023-04-24T00:30:05;13.90;;;8.10;;
42598;SDS011;28225;42.714;23.860;2023-04-24T00:30:21;13.90;;;8.40;;
42598;SDS011;28225;42.714;23.860;2023-04-24T00:30:36;15.47;;;9.27;;
42598;SDS011;28225;42.714;23.860;2023-04-24T00:30:52;16.27;;;9.15;;
42598;SDS011;28225;42.714;23.860;2023-04-24T00:31:07;15.40;;;8.93;;
42598;SDS011;28225;42.714;23.860;2023-04-24T00:31:22;12.30;;;8.83;;
42598;SDS011;28225;42.714;23.860;2023-04-24T00:31:38;14.63;;;8.85;;
42598;SDS011;28225;42.714;23.860;2023-04-24T00:31:53;15.53;;;9.07;;
42598;SDS011;28225;42.714;23.860;2023-04-24T00:32:09;14.85;;;9.23;;
42598;SDS011;28225;42.714;23.860;2023-04-24T00:32:24;14.93;;;9.47;;
42598;SDS011;28225;42.714;23.860;2023-04-24T00:32:40;12.18;;;8.70;;
42598;SDS011;28225;42.714;23.860;2023-04-24T00:32:55;12.13;;;7.60;;
42598;SDS011;28225;42.714;23.860;2023-04-24T00:33:10;12.03;;;7.10;;
42598;SDS011;28225;42.714;23.860;2023-04-24T00:33:26;9.20;;;6.03;;
42598;SDS011;28225;42.714;23.860;2023-04-24T00:33:41;7.53;;;5.50;;
42598;SDS011;28225;42.714;23.860;2023-04-24T00:33:57;8.98;;;6.25;;
42598;SDS011;28225;42.714;23.860;2023-04-24T00:34:13;9.67;;;6.53;;
42598;SDS011;28225;42.714;23.860;2023-04-24T00:34:28;7.60;;;5.90;;
42598;SDS011;28225;42.714;23.860;2023-04-24T00:34:43;6.67;;;5.70;;
42598;SDS011;28225;42.714;23.860;2023-04-24T00:34:59;8.43;;;5.43;;
42598;SDS011;28225;42.714;23.860;2023-04-24T00:35:14;9.40;;;4.97;;
42598;SDS011;28225;42.714;23.860;2023-04-24T00:35:30;8.18;;;5.20;;
42598;SDS011;28225;42.714;23.860;2023-04-24T00:35:45;8.30;;;5.60;;
42598;SDS011;28225;42.714;23.860;2023-04-24T00:36:00;8.23;;;5.43;;
42598;SDS011;28225;42.714;23.860;2023-04-24T00:36:16;7.78;;;5.15;;
42598;SDS011;28225;42.714;23.860;2023-04-24T00:36:31;7.07;;;4.83;;
42598;SDS011;28225;42.714;23.860;2023-04-24T00:36:47;8.20;;;4.97;;
42598;SDS011;28225;42.714;23.860;2023-04-24T00:37:05;11.15;;;5.78;;
42598;SDS011;28225;42.714;23.860;2023-04-24T00:37:21;9.40;;;6.00;;
42598;SDS011;28225;42.714;23.860;2023-04-24T00:37:36;13.48;;;6.00;;
42598;SDS011;28225;42.714;23.860;2023-04-24T00:37:51;15.90;;;5.70;;
42598;SDS011;28225;42.714;23.860;2023-04-24T00:38:07;11.73;;;5.50;;
42598;SDS011;28225;42.714;23.860;2023-04-24T00:38:22;7.72;;;5.00;;
42598;SDS011;28225;42.714;23.860;2023-04-24T00:38:38;6.55;;;5.03;;
42598;SDS011;28225;42.714;23.860;2023-04-24T00:38:54;6.57;;;5.13;;
42598;SDS011;28225;42.714;23.860;2023-04-24T00:39:09;7.05;;;4.90;;
42598;SDS011;28225;42.714;23.860;2023-04-24T00:39:25;8.85;;;4.75;;
42598;SDS011;28225;42.714;23.860;2023-04-24T00:39:40;8.50;;;5.03;;
42598;SDS011;28225;42.714;23.860;2023-04-24T00:39:56;7.60;;;4.80;;
42598;SDS011;28225;42.714;23.860;2023-04-24T00:40:11;6.82;;;4.50;;
42598;SDS011;28225;42.714;23.860;2023-04-24T00:40:27;7.50;;;4.50;;
42598;SDS011;28225;42.714;23.860;2023-04-24T00:40:42;8.20;;;4.70;;
42598;SDS011;28225;42.714;23.860;2023-04-24T00:40:58;6.70;;;4.88;;
42598;SDS011;28225;42.714;23.860;2023-04-24T00:41:13;6.27;;;4.93;;
42598;SDS011;28225;42.714;23.860;2023-04-24T00:41:29;7.25;;;4.90;;
42598;SDS011;28225;42.714;23.860;2023-04-24T00:41:45;7.37;;;4.70;;
42598;SDS011;28225;42.714;23.860;2023-04-24T00:42:00;8.00;;;4.75;;
42598;SDS011;28225;42.714;23.860;2023-04-24T00:42:16;7.95;;;4.72;;
42598;SDS011;28225;42.714;23.860;2023-04-24T00:42:32;6.07;;;4.80;;
42598;SDS011;28225;42.714;23.860;2023-04-24T00:42:48;4.97;;;4.50;;
42598;SDS011;28225;42.714;23.860;2023-04-24T00:43:03;7.07;;;4.78;;
42598;SDS011;28225;42.714;23.860;2023-04-24T00:43:19;8.07;;;4.87;;
42598;SDS011;28225;42.714;23.860;2023-04-24T00:43:34;6.85;;;4.78;;
42598;SDS011;28225;42.714;23.860;2023-04-24T00:43:50;7.57;;;5.00;;
42598;SDS011;28225;42.714;23.860;2023-04-24T00:44:06;6.10;;;4.75;;
42598;SDS011;28225;42.714;23.860;2023-04-24T00:44:22;5.72;;;4.53;;
42598;SDS011;28225;42.714;23.860;2023-04-24T00:44:37;7.70;;;4.77;;
42598;SDS011;28225;42.714;23.860;2023-04-24T00:44:53;7.32;;;5.20;;
42598;SDS011;28225;42.714;23.860;2023-04-24T00:45:09;5.77;;;5.13;;
42598;SDS011;28225;42.714;23.860;2023-04-24T00:45:24;6.70;;;4.95;;
42598;SDS011;28225;42.714;23.860;2023-04-24T00:45:40;6.63;;;4.93;;
42598;SDS011;28225;42.714;23.860;2023-04-24T00:45:55;5.47;;;4.80;;
42598;SDS011;28225;42.714;23.860;2023-04-24T00:46:11;6.90;;;4.77;;
42598;SDS011;28225;42.714;23.860;2023-04-24T00:46:26;7.53;;;4.88;;
42598;SDS011;28225;42.714;23.860;2023-04-24T00:46:42;6.87;;;4.97;;
42598;SDS011;28225;42.714;23.860;2023-04-24T00:46:58;7.55;;;5.30;;
42598;SDS011;28225;42.714;23.860;2023-04-24T00:47:14;7.07;;;5.15;;
42598;SDS011;28225;42.714;23.860;2023-04-24T00:47:29;8.13;;;5.10;;
42598;SDS011;28225;42.714;23.860;2023-04-24T00:47:45;7.22;;;4.95;;
42598;SDS011;28225;42.714;23.860;2023-04-24T00:48:01;6.50;;;4.57;;
42598;SDS011;28225;42.714;23.860;2023-04-24T00:48:17;5.73;;;4.27;;
42598;SDS011;28225;42.714;23.860;2023-04-24T00:48:33;5.80;;;4.70;;
42598;SDS011;28225;42.714;23.860;2023-04-24T00:48:49;7.20;;;4.95;;
42598;SDS011;28225;42.714;23.860;2023-04-24T00:49:05;6.50;;;4.90;;
42598;SDS011;28225;42.714;23.860;2023-04-24T00:49:21;5.03;;;4.53;;
42598;SDS011;28225;42.714;23.860;2023-04-24T00:49:37;5.90;;;4.80;;
42598;SDS011;28225;42.714;23.860;2023-04-24T00:49:52;6.53;;;5.07;;
42598;SDS011;28225;42.714;23.860;2023-04-24T00:50:07;5.88;;;4.63;;
42598;SDS011;28225;42.714;23.860;2023-04-24T00:50:23;6.30;;;4.50;;
42598;SDS011;28225;42.714;23.860;2023-04-24T00:50:39;6.40;;;4.25;;
42598;SDS011;28225;42.714;23.860;2023-04-24T00:50:55;6.50;;;4.43;;
42598;SDS011;28225;42.714;23.860;2023-04-24T00:51:10;6.93;;;4.55;;
42598;SDS011;28225;42.714;23.860;2023-04-24T00:51:26;7.23;;;4.67;;
42598;SDS011;28225;42.714;23.860;2023-04-24T00:51:42;6.30;;;4.60;;
42598;SDS011;28225;42.714;23.860;2023-04-24T00:52:00;9.93;;;4.60;;
42598;SDS011;28225;42.714;23.860;2023-04-24T00:52:16;10.65;;;4.82;;
42598;SDS011;28225;42.714;23.860;2023-04-24T00:52:32;6.95;;;4.57;;
42598;SDS011;28225;42.714;23.860;2023-04-24T00:52:48;6.37;;;4.40;;
42598;SDS011;28225;42.714;23.860;2023-04-24T00:53:03;7.10;;;4.40;;
42598;SDS011;28225;42.714;23.860;2023-04-24T00:53:19;9.63;;;4.83;;
42598;SDS011;28225;42.714;23.860;2023-04-24T00:53:34;8.15;;;4.85;;
42598;SDS011;28225;42.714;23.860;2023-04-24T00:53:50;7.97;;;5.00;;
42598;SDS011;28225;42.714;23.860;2023-04-24T00:54:07;8.27;;;5.18;;
42598;SDS011;28225;42.714;23.860;2023-04-24T00:54:22;7.17;;;5.67;;
42598;SDS011;28225;42.714;23.860;2023-04-24T00:54:37;7.57;;;5.78;;
42598;SDS011;28225;42.714;23.860;2023-04-24T00:54:53;8.13;;;5.80;;
42598;SDS011;28225;42.714;23.860;2023-04-24T00:55:08;8.20;;;5.77;;
42598;SDS011;28225;42.714;23.860;2023-04-24T00:55:24;10.85;;;5.45;;
42598;SDS011;28225;42.714;23.860;2023-04-24T00:55:40;10.07;;;5.30;;
42598;SDS011;28225;42.714;23.860;2023-04-24T00:55:56;6.95;;;5.10;;
42598;SDS011;28225;42.714;23.860;2023-04-24T00:56:11;7.40;;;5.10;;
42598;SDS011;28225;42.714;23.860;2023-04-24T00:56:27;6.53;;;4.85;;
42598;SDS011;28225;42.714;23.860;2023-04-24T00:56:43;6.90;;;4.80;;
42598;SDS011;28225;42.714;23.860;2023-04-24T00:56:59;7.03;;;5.10;;
42598;SDS011;28225;42.714;23.860;2023-04-24T00:57:16;7.55;;;5.00;;
42598;SDS011;28225;42.714;23.860;2023-04-24T00:57:32;7.00;;;4.93;;
42598;SDS011;28225;42.714;23.860;2023-04-24T00:57:47;6.97;;;4.82;;
42598;SDS011;28225;42.714;23.860;2023-04-24T00:58:04;7.10;;;4.50;;
42598;SDS011;28225;42.714;23.860;2023-04-24T00:58:19;6.15;;;4.25;;
42598;SDS011;28225;42.714;23.860;2023-04-24T00:58:35;6.33;;;4.40;;
42598;SDS011;28225;42.714;23.860;2023-04-24T00:58:50;7.17;;;5.03;;
42598;SDS011;28225;42.714;23.860;2023-04-24T00:59:06;7.13;;;5.05;;
42598;SDS011;28225;42.714;23.860;2023-04-24T00:59:21;6.87;;;5.17;;
42598;SDS011;28225;42.714;23.860;2023-04-24T00:59:37;6.85;;;5.07;;
42598;SDS011;28225;42.714;23.860;2023-04-24T00:59:52;6.00;;;4.77;;
42598;SDS011;28225;42.714;23.860;2023-04-24T01:00:08;5.40;;;4.90;;
42598;SDS011;28225;42.714;23.860;2023-04-24T01:00:27;6.80;;;4.82;;
42598;SDS011;28225;42.714;23.860;2023-04-24T01:00:43;7.90;;;4.90;;
42598;SDS011;28225;42.714;23.860;2023-04-24T01:00:59;6.47;;;4.70;;
42598;SDS011;28225;42.714;23.860;2023-04-24T01:01:15;7.00;;;4.53;;
42598;SDS011;28225;42.714;23.860;2023-04-24T01:01:31;8.18;;;4.85;;
42598;SDS011;28225;42.714;23.860;2023-04-24T01:01:47;10.50;;;5.20;;
42598;SDS011;28225;42.714;23.860;2023-04-24T01:02:02;10.05;;;4.93;;
42598;SDS011;28225;42.714;23.860;2023-04-24T01:02:18;6.60;;;4.60;;
42598;SDS011;28225;42.714;23.860;2023-04-24T01:02:35;7.13;;;4.50;;
42598;SDS011;28225;42.714;23.860;2023-04-24T01:02:51;8.40;;;4.70;;
42598;SDS011;28225;42.714;23.860;2023-04-24T01:03:06;7.50;;;4.57;;
42598;SDS011;28225;42.714;23.860;2023-04-24T01:03:22;5.93;;;4.43;;
42598;SDS011;28225;42.714;23.860;2023-04-24T01:03:41;5.47;;;4.50;;
42598;SDS011;28225;42.714;23.860;2023-04-24T01:03:57;5.55;;;4.50;;
42598;SDS011;28225;42.714;23.860;2023-04-24T01:04:12;7.13;;;4.77;;
42598;SDS011;28225;42.714;23.860;2023-04-24T01:04:28;7.95;;;4.65;;
42598;SDS011;28225;42.714;23.860;2023-04-24T01:04:43;8.17;;;4.80;;
42598;SDS011;28225;42.714;23.860;2023-04-24T01:05:00;9.23;;;5.07;;
42598;SDS011;28225;42.714;23.860;2023-04-24T01:05:16;8.30;;;4.82;;
42598;SDS011;28225;42.714;23.860;2023-04-24T01:05:32;6.93;;;4.82;;
42598;SDS011;28225;42.714;23.860;2023-04-24T01:05:48;8.43;;;5.07;;
42598;SDS011;28225;42.714;23.860;2023-04-24T01:06:04;9.10;;;5.13;;
42598;SDS011;28225;42.714;23.860;2023-04-24T01:06:20;6.25;;;5.00;;
42598;SDS011;28225;42.714;23.860;2023-04-24T01:06:36;6.50;;;4.90;;
42598;SDS011;28225;42.714;23.860;2023-04-24T01:06:54;6.80;;;4.72;;
42598;SDS011;28225;42.714;23.860;2023-04-24T01:07:10;7.22;;;4.57;;
42598;SDS011;28225;42.714;23.860;2023-04-24T01:07:26;7.45;;;4.47;;
42598;SDS011;28225;42.714;23.860;2023-04-24T01:07:43;6.72;;;4.35;;
42598;SDS011;28225;42.714;23.860;2023-04-24T01:08:00;7.95;;;4.70;;
42598;SDS011;28225;42.714;23.860;2023-04-24T01:08:16;6.72;;;4.50;;
42598;SDS011;28225;42.714;23.860;2023-04-24T01:08:31;6.37;;;4.60;;
42598;SDS011;28225;42.714;23.860;2023-04-24T01:08:47;7.03;;;5.10;;
42598;SDS011;28225;42.714;23.860;2023-04-24T01:09:03;7.50;;;5.07;;
42598;SDS011;28225;42.714;23.860;2023-04-24T01:09:19;7.93;;;4.97;;
42598;SDS011;28225;42.714;23.860;2023-04-24T01:09:36;6.70;;;4.88;;
42598;SDS011;28225;42.714;23.860;2023-04-24T01:09:53;6.45;;;5.05;;
42598;SDS011;28225;42.714;23.860;2023-04-24T01:10:08;6.40;;;5.30;;
42598;SDS011;28225;42.714;23.860;2023-04-24T01:10:24;7.20;;;5.80;;
42598;SDS011;28225;42.714;23.860;2023-04-24T01:10:40;7.95;;;6.28;;
42598;SDS011;28225;42.714;23.860;2023-04-24T01:10:57;7.93;;;6.00;;
42598;SDS011;28225;42.714;23.860;2023-04-24T01:11:12;7.07;;;5.57;;
42598;SDS011;28225;42.714;23.860;2023-04-24T01:11:28;6.72;;;5.40;;
42598;SDS011;28225;42.714;23.860;2023-04-24T01:11:43;6.40;;;5.40;;
42598;SDS011;28225;42.714;23.860;2023-04-24T01:11:59;7.15;;;5.22;;
42598;SDS011;28225;42.714;23.860;2023-04-24T01:12:15;6.05;;;5.05;;
42598;SDS011;28225;42.714;23.860;2023-04-24T01:12:31;6.07;;;5.40;;
42598;SDS011;28225;42.714;23.860;2023-04-24T01:12:47;7.40;;;5.90;;
42598;SDS011;28225;42.714;23.860;2023-04-24T01:13:02;7.67;;;5.67;;
42598;SDS011;28225;42.714;23.860;2023-04-24T01:13:21;7.93;;;5.30;;
42598;SDS011;28225;42.714;23.860;2023-04-24T01:13:36;8.60;;;5.22;;
42598;SDS011;28225;42.714;23.860;2023-04-24T01:13:52;8.20;;;5.50;;
42598;SDS011;28225;42.714;23.860;2023-04-24T01:14:07;7.30;;;5.55;;
42598;SDS011;28225;42.714;23.860;2023-04-24T01:14:22;8.40;;;5.60;;
42598;SDS011;28225;42.714;23.860;2023-04-24T01:14:38;7.82;;;5.63;;
42598;SDS011;28225;42.714;23.860;2023-04-24T01:14:54;7.27;;;5.30;;
42598;SDS011;28225;42.714;23.860;2023-04-24T01:15:10;8.40;;;5.72;;
42598;SDS011;28225;42.714;23.860;2023-04-24T01:15:25;7.55;;;6.13;;
42598;SDS011;28225;42.714;23.860;2023-04-24T01:15:41;7.97;;;5.90;;
42598;SDS011;28225;42.714;23.860;2023-04-24T01:15:56;9.75;;;6.15;;
42598;SDS011;28225;42.714;23.860;2023-04-24T01:16:12;10.07;;;6.57;;
42598;SDS011;28225;42.714;23.860;2023-04-24T01:16:27;8.20;;;6.22;;
42598;SDS011;28225;42.714;23.860;2023-04-24T01:16:43;7.23;;;5.80;;
42598;SDS011;28225;42.714;23.860;2023-04-24T01:16:58;8.60;;;5.78;;
42598;SDS011;28225;42.714;23.860;2023-04-24T01:17:14;11.03;;;6.17;;
42598;SDS011;28225;42.714;23.860;2023-04-24T01:17:30;13.23;;;6.63;;
42598;SDS011;28225;42.714;23.860;2023-04-24T01:17:46;10.00;;;6.10;;
42598;SDS011;28225;42.714;23.860;2023-04-24T01:18:02;6.13;;;5.47;;
42598;SDS011;28225;42.714;23.860;2023-04-24T01:18:18;6.25;;;5.57;;
42598;SDS011;28225;42.714;23.860;2023-04-24T01:18:33;7.15;;;5.65;;
42598;SDS011;28225;42.714;23.860;2023-04-24T01:18:48;8.47;;;5.30;;
42598;SDS011;28225;42.714;23.860;2023-04-24T01:19:05;8.67;;;5.13;;
42598;SDS011;28225;42.714;23.860;2023-04-24T01:19:21;7.75;;;5.45;;
42598;SDS011;28225;42.714;23.860;2023-04-24T01:19:36;7.38;;;5.72;;
42598;SDS011;28225;42.714;23.860;2023-04-24T01:19:52;8.25;;;6.03;;
42598;SDS011;28225;42.714;23.860;2023-04-24T01:20:14;7.25;;;5.95;;
42598;SDS011;28225;42.714;23.860;2023-04-24T01:20:30;7.07;;;6.00;;
42598;SDS011;28225;42.714;23.860;2023-04-24T01:20:46;7.60;;;5.90;;
42598;SDS011;28225;42.714;23.860;2023-04-24T01:21:04;8.00;;;5.45;;
42598;SDS011;28225;42.714;23.860;2023-04-24T01:21:20;7.50;;;5.40;;
42598;SDS011;28225;42.714;23.860;2023-04-24T01:21:37;7.10;;;5.78;;
42598;SDS011;28225;42.714;23.860;2023-04-24T01:21:53;7.90;;;6.00;;
42598;SDS011;28225;42.714;23.860;2023-04-24T01:22:18;8.52;;;5.90;;
42598;SDS011;28225;42.714;23.860;2023-04-24T01:22:33;7.72;;;6.03;;
42598;SDS011;28225;42.714;23.860;2023-04-24T01:22:49;7.00;;;6.10;;
42598;SDS011;28225;42.714;23.860;2023-04-24T01:23:05;6.70;;;6.00;;
42598;SDS011;28225;42.714;23.860;2023-04-24T01:23:21;7.55;;;6.10;;
42598;SDS011;28225;42.714;23.860;2023-04-24T01:23:36;7.20;;;5.70;;
42598;SDS011;28225;42.714;23.860;2023-04-24T01:23:52;7.73;;;5.60;;
42598;SDS011;28225;42.714;23.860;2023-04-24T01:24:07;8.30;;;6.30;;
42598;SDS011;28225;42.714;23.860;2023-04-24T01:24:22;9.23;;;6.20;;
42598;SDS011;28225;42.714;23.860;2023-04-24T01:24:38;10.83;;;5.90;;
42598;SDS011;28225;42.714;23.860;2023-04-24T01:24:53;8.88;;;5.93;;
42598;SDS011;28225;42.714;23.860;2023-04-24T01:25:09;6.87;;;6.07;;
42598;SDS011;28225;42.714;23.860;2023-04-24T01:25:24;7.72;;;6.15;;
42598;SDS011;28225;42.714;23.860;2023-04-24T01:25:41;8.57;;;6.20;;
42598;SDS011;28225;42.714;23.860;2023-04-24T01:25:56;7.00;;;6.05;;
42598;SDS011;28225;42.714;23.860;2023-04-24T01:26:12;6.57;;;5.67;;
42598;SDS011;28225;42.714;23.860;2023-04-24T01:26:29;7.70;;;5.93;;
42598;SDS011;28225;42.714;23.860;2023-04-24T01:26:44;8.37;;;5.97;;
42598;SDS011;28225;42.714;23.860;2023-04-24T01:27:00;9.85;;;5.70;;
42598;SDS011;28225;42.714;23.860;2023-04-24T01:27:16;8.30;;;6.00;;
42598;SDS011;28225;42.714;23.860;2023-04-24T01:27:31;7.97;;;5.77;;
42598;SDS011;28225;42.714;23.860;2023-04-24T01:27:47;7.60;;;5.88;;
42598;SDS011;28225;42.714;23.860;2023-04-24T01:28:02;7.43;;;6.17;;
42598;SDS011;28225;42.714;23.860;2023-04-24T01:28:19;10.32;;;6.40;;
42598;SDS011;28225;42.714;23.860;2023-04-24T01:28:34;9.60;;;6.27;;
42598;SDS011;28225;42.714;23.860;2023-04-24T01:28:50;8.05;;;6.32;;
42598;SDS011;28225;42.714;23.860;2023-04-24T01:29:06;8.00;;;6.00;;
42598;SDS011;28225;42.714;23.860;2023-04-24T01:29:21;8.33;;;6.10;;
42598;SDS011;28225;42.714;23.860;2023-04-24T01:29:37;8.95;;;6.07;;
42598;SDS011;28225;42.714;23.860;2023-04-24T01:29:52;8.83;;;6.30;;
42598;SDS011;28225;42.714;23.860;2023-04-24T01:30:08;9.35;;;6.45;;
42598;SDS011;28225;42.714;23.860;2023-04-24T01:30:24;9.82;;;5.95;;
42598;SDS011;28225;42.714;23.860;2023-04-24T01:30:40;9.05;;;5.93;;
42598;SDS011;28225;42.714;23.860;2023-04-24T01:30:56;10.25;;;6.63;;
42598;SDS011;28225;42.714;23.860;2023-04-24T01:31:11;11.00;;;7.07;;
42598;SDS011;28225;42.714;23.860;2023-04-24T01:31:27;10.65;;;6.57;;
42598;SDS011;28225;42.714;23.860;2023-04-24T01:31:42;9.03;;;6.00;;
42598;SDS011;28225;42.714;23.860;2023-04-24T01:31:58;8.98;;;6.10;;
42598;SDS011;28225;42.714;23.860;2023-04-24T01:32:13;8.65;;;6.13;;
42598;SDS011;28225;42.714;23.860;2023-04-24T01:32:29;8.13;;;5.93;;
42598;SDS011;28225;42.714;23.860;2023-04-24T01:32:44;9.40;;;6.17;;
42598;SDS011;28225;42.714;23.860;2023-04-24T01:33:00;10.10;;;6.13;;
42598;SDS011;28225;42.714;23.860;2023-04-24T01:33:16;8.23;;;5.97;;